Time;durP1;ratioP1;P1;durP2;ratioP2;P2;SDS_P1;SDS_P2;PMS_P1;PMS_P2;Temp;Humidity;BMP_temperature;BMP_pressure;BME280_temperature;BME280_humidity;BME280_pressure;Samples;Min_cycle;Max_cycle;Signal;HPM_P1;HPM_P2
2021/08/19 00:01:20;;;;;;;;;;;;;;;10.65;88.39;97967.34;1738932;82;20636;-74
2021/08/19 00:03:46;;;;;;;;;;;;;;;10.72;87.43;97963.22;1739091;82;21075;-78
2021/08/19 00:06:12;;;;;;;;;;;;;;;10.67;88.15;97964.59;1738901;81;20241;-78
2021/08/19 00:08:38;;;;;;;;;;;;;;;10.71;86.09;97963.51;1739049;82;20173;-74
2021/08/19 00:11:04;;;;;;;;;;;;;;;10.65;86.19;97966.78;1738893;81;20140;-73
2021/08/19 00:13:30;;;;;;;;;;;;;;;10.67;86.15;97965.14;1739067;81;20096;-78
2021/08/19 00:15:56;;;;;;;;;;;;;;;10.72;85.64;97958.34;1739031;81;21149;-74
2021/08/19 00:18:23;;;;;;;;;;;;;;;10.73;87.20;97969.45;1738916;81;20469;-78
2021/08/19 00:20:49;;;;;;;;;;;;;;;10.80;88.63;97967.23;1739003;81;20139;-78
2021/08/19 00:23:15;;;;;;;;;;;;;;;10.91;88.20;97959.83;1738965;81;20140;-73
2021/08/19 00:25:40;;;;;;;;;;;;;;;10.95;87.92;97962.25;1739050;82;20206;-78
2021/08/19 00:28:06;;;;;;;;;;;;;;;10.95;88.21;97956.83;1739107;81;20774;-77
2021/08/19 00:30:32;;;;;;;;;;;;;;;10.96;87.77;97957.09;1738901;81;20303;-73
2021/08/19 00:32:58;;;;;;;;;;;;;;;10.95;87.65;97955.48;1738965;82;20710;-78
2021/08/19 00:35:24;;;;;;;;;;;;;;;10.91;87.04;97955.22;1739006;81;20174;-73
2021/08/19 00:37:49;;;;;;;;;;;;;;;10.82;87.66;97962.88;1739050;82;20147;-78
2021/08/19 00:40:15;;;;;;;;;;;;;;;10.73;88.00;97958.06;1739064;82;21062;-73
2021/08/19 00:42:41;;;;;;;;;;;;;;;10.61;88.96;97961.68;1739037;82;20217;-78
2021/08/19 00:45:08;;;;;;;;;;;;;;;10.57;88.78;97957.89;1739039;81;20140;-74
2021/08/19 00:47:37;;;;;;;;;;;;;;;10.54;88.82;97958.47;1718313;82;20849;-78
2021/08/19 00:50:02;;;;;;;;;;;;;;;10.48;89.42;97960.13;1736572;81;20602;-73
2021/08/19 00:52:29;;;;;;;;;;;;;;;10.49;88.83;97963.09;1730901;83;21937;-78
2021/08/19 00:54:55;;;;;;;;;;;;;;;10.53;88.79;97966.34;1730609;83;20149;-77
2021/08/19 00:57:21;;;;;;;;;;;;;;;10.55;89.47;97961.98;1731114;82;20229;-78
2021/08/19 00:59:47;;;;;;;;;;;;;;;10.55;88.78;97967.41;1730666;82;20210;-74
2021/08/19 01:02:12;;;;;;;;;;;;;;;10.57;87.64;97963.86;1730838;83;20168;-73
2021/08/19 01:04:39;;;;;;;;;;;;;;;10.57;88.17;97965.22;1730804;82;21075;-73
2021/08/19 01:07:05;;;;;;;;;;;;;;;10.58;89.24;97964.93;1730976;83;20438;-78
2021/08/19 01:09:31;;;;;;;;;;;;;;;10.62;88.58;97963.30;1730803;83;20288;-78
2021/08/19 01:11:57;;;;;;;;;;;;;;;10.61;88.97;97963.03;1730652;83;20685;-73
2021/08/19 01:14:22;;;;;;;;;;;;;;;10.61;88.83;97961.68;1730804;82;20170;-78
2021/08/19 01:16:48;;;;;;;;;;;;;;;10.62;89.41;97958.42;1730712;82;21738;-78
2021/08/19 01:19:18;;;;;;;;;;;;;;;10.62;89.63;97958.42;1730655;83;20143;-78
2021/08/19 01:21:45;;;;;;;;;;;;;;;10.63;89.37;97958.69;1730734;83;20136;-78
2021/08/19 01:24:11;;;;;;;;;;;;;;;10.64;88.84;97961.11;1730834;82;20428;-78
2021/08/19 01:26:37;;;;;;;;;;;;;;;10.67;88.26;97963.79;1730846;82;20116;-78
2021/08/19 01:29:04;;;;;;;;;;;;;;;10.68;87.43;97959.47;1730783;82;21035;-78
2021/08/19 01:31:30;;;;;;;;;;;;;;;10.67;86.96;97961.08;1730698;83;20419;-73
2021/08/19 01:33:56;;;;;;;;;;;;;;;10.63;89.15;97958.14;1730830;83;20143;-78
2021/08/19 01:36:22;;;;;;;;;;;;;;;10.61;89.59;97956.26;1730787;82;20226;-74
2021/08/19 01:38:49;;;;;;;;;;;;;;;10.64;86.54;97955.69;1730800;82;20217;-74
2021/08/19 01:41:15;;;;;;;;;;;;;;;10.57;87.24;97958.45;1715673;82;21130;-73
2021/08/19 01:43:40;;;;;;;;;;;;;;;10.48;89.64;97950.09;1736561;82;20194;-77
2021/08/19 01:46:07;;;;;;;;;;;;;;;10.48;90.14;97951.45;1735843;81;20166;-74
2021/08/19 01:48:34;;;;;;;;;;;;;;;10.52;88.20;97953.88;1730775;83;20607;-78
2021/08/19 01:50:59;;;;;;;;;;;;;;;10.52;87.67;97949.02;1739904;82;20140;-73
2021/08/19 01:53:25;;;;;;;;;;;;;;;10.54;89.31;97951.70;1739038;81;21122;-78
2021/08/19 01:55:52;;;;;;;;;;;;;;;10.59;89.40;97952.19;1738684;82;20470;-78
2021/08/19 01:58:19;;;;;;;;;;;;;;;10.61;90.11;97948.13;1738910;82;20152;-73
2021/08/19 02:00:45;;;;;;;;;;;;;;;10.66;89.26;97948.63;1739017;82;20404;-77
2021/08/19 02:03:11;;;;;;;;;;;;;;;10.67;89.57;97944.82;1739018;82;20191;-78
2021/08/19 02:05:38;;;;;;;;;;;;;;;10.69;89.40;97947.53;1739016;81;21159;-78
2021/08/19 02:08:06;;;;;;;;;;;;;;;10.72;89.65;97953.73;1738941;81;20207;-74
2021/08/19 02:10:32;;;;;;;;;;;;;;;10.78;88.90;97951.00;1738522;81;20178;-73
2021/08/19 02:12:58;;;;;;;;;;;;;;;10.78;88.49;97940.16;1738898;82;20403;-78
2021/08/19 02:15:23;;;;;;;;;;;;;;;10.79;89.47;97937.71;1739087;82;20162;-77
2021/08/19 02:17:49;;;;;;;;;;;;;;;10.86;88.69;97943.63;1739068;82;21082;-74
2021/08/19 02:20:15;;;;;;;;;;;;;;;10.88;88.28;97942.78;1739272;82;20170;-78
2021/08/19 02:22:41;;;;;;;;;;;;;;;10.86;88.97;97945.78;1739157;82;20177;-74
2021/08/19 02:25:07;;;;;;;;;;;;;;;10.87;88.72;97942.53;1739219;81;20185;-78
2021/08/19 02:27:33;;;;;;;;;;;;;;;10.88;89.19;97949.02;1739150;82;20415;-73
2021/08/19 02:29:58;;;;;;;;;;;;;;;10.87;87.12;97946.05;1739168;82;21965;-73
2021/08/19 02:32:24;;;;;;;;;;;;;;;10.79;88.19;97950.71;1738811;81;20186;-73
2021/08/19 02:34:52;;;;;;;;;;;;;;;10.81;86.44;97950.42;1739266;81;20160;-77
2021/08/19 02:37:20;;;;;;;;;;;;;;;10.75;88.18;97951.00;1738863;82;20159;-73
2021/08/19 02:39:45;;;;;;;;;;;;;;;10.76;89.85;97946.39;1739004;82;20148;-73
2021/08/19 02:42:11;;;;;;;;;;;;;;;10.74;90.68;97948.03;1718124;82;21023;-78
2021/08/19 02:44:37;;;;;;;;;;;;;;;10.75;90.06;97952.35;1738975;82;20205;-77
2021/08/19 02:47:03;;;;;;;;;;;;;;;10.72;90.48;97952.93;1738913;82;20280;-78
2021/08/19 02:49:29;;;;;;;;;;;;;;;10.74;89.20;97950.19;1738877;82;20160;-78
2021/08/19 02:51:54;;;;;;;;;;;;;;;10.72;89.69;97955.09;1738962;82;20159;-73
2021/08/19 02:54:20;;;;;;;;;;;;;;;10.73;90.61;97947.77;1739014;81;22056;-74
2021/08/19 02:56:46;;;;;;;;;;;;;;;10.78;89.93;97946.39;1738867;82;20166;-73
2021/08/19 02:59:12;;;;;;;;;;;;;;;10.82;90.62;97945.27;1739009;82;20178;-78
2021/08/19 03:01:37;;;;;;;;;;;;;;;10.88;90.59;97944.14;1739089;82;20162;-78
2021/08/19 03:04:03;;;;;;;;;;;;;;;10.92;90.02;97945.98;1732628;81;20139;-74
2021/08/19 03:06:29;;;;;;;;;;;;;;;10.95;90.22;97938.66;1710343;83;21175;-73
2021/08/19 03:08:55;;;;;;;;;;;;;;;11.03;89.78;97948.09;1730815;82;20384;-74
2021/08/19 03:11:20;;;;;;;;;;;;;;;11.09;89.81;97942.05;1730873;83;20226;-77
2021/08/19 03:13:46;;;;;;;;;;;;;;;11.13;89.60;97944.48;1730923;83;20143;-74
2021/08/19 03:16:12;;;;;;;;;;;;;;;11.18;89.24;97944.41;1731115;82;20245;-78
2021/08/19 03:18:38;;;;;;;;;;;;;;;11.16;88.18;97944.70;1730973;83;21832;-74
2021/08/19 03:21:03;;;;;;;;;;;;;;;11.12;90.10;97943.67;1730850;82;20245;-73
2021/08/19 03:23:30;;;;;;;;;;;;;;;11.19;89.36;97950.09;1731014;82;20265;-78
2021/08/19 03:25:55;;;;;;;;;;;;;;;11.21;89.53;97943.86;1730997;82;20132;-78
2021/08/19 03:28:23;;;;;;;;;;;;;;;11.22;88.91;97947.64;1731057;83;20164;-78
2021/08/19 03:30:54;;;;;;;;;;;;;;;11.21;89.20;97943.31;1730894;82;21765;-74
2021/08/19 03:33:19;;;;;;;;;;;;;;;11.19;89.68;97941.41;1730788;82;20152;-78
2021/08/19 03:35:45;;;;;;;;;;;;;;;11.22;90.36;97932.72;1731043;83;20225;-78
2021/08/19 03:38:12;;;;;;;;;;;;;;;11.26;89.25;97934.30;1730965;83;20124;-73
2021/08/19 03:40:37;;;;;;;;;;;;;;;11.25;89.71;97935.41;1731047;82;20183;-78
2021/08/19 03:43:03;;;;;;;;;;;;;;;11.28;90.11;97937.56;1730986;83;21220;-74
2021/08/19 03:45:29;;;;;;;;;;;;;;;11.32;88.45;97940.50;1710245;83;20225;-78
2021/08/19 03:47:55;;;;;;;;;;;;;;;11.33;87.77;97941.56;1731025;83;20170;-74
2021/08/19 03:50:21;;;;;;;;;;;;;;;11.32;89.47;97929.10;1734647;82;20170;-78
2021/08/19 03:52:47;;;;;;;;;;;;;;;11.35;90.11;97934.49;1741636;82;20103;-78
2021/08/19 03:55:12;;;;;;;;;;;;;;;11.33;89.92;97944.83;1738964;82;21133;-78
2021/08/19 03:57:38;;;;;;;;;;;;;;;11.34;89.21;97947.25;1738809;81;20166;-78
2021/08/19 04:00:05;;;;;;;;;;;;;;;11.26;88.78;97940.53;1739218;82;20189;-78
2021/08/19 04:02:30;;;;;;;;;;;;;;;11.21;87.86;97941.16;1738879;81;20119;-78
2021/08/19 04:04:56;;;;;;;;;;;;;;;11.18;87.70;97941.16;1739321;81;20170;-74
2021/08/19 04:07:22;;;;;;;;;;;;;;;11.11;89.41;97940.70;1738901;82;20976;-73
2021/08/19 04:09:48;;;;;;;;;;;;;;;11.17;89.95;97936.83;1738861;82;20197;-73
2021/08/19 04:12:13;;;;;;;;;;;;;;;11.20;90.68;97944.41;1738950;82;20209;-74
2021/08/19 04:14:39;;;;;;;;;;;;;;;11.24;90.09;97943.28;1738921;82;20174;-74
2021/08/19 04:17:05;;;;;;;;;;;;;;;11.30;89.69;97938.08;1738956;81;20166;-78
2021/08/19 04:19:30;;;;;;;;;;;;;;;11.31;89.80;97941.05;1738942;82;21082;-74
2021/08/19 04:21:56;;;;;;;;;;;;;;;11.36;89.51;97941.53;1738884;81;20162;-74
2021/08/19 04:24:22;;;;;;;;;;;;;;;11.44;87.79;97939.55;1738991;81;20178;-73
2021/08/19 04:26:48;;;;;;;;;;;;;;;11.46;88.28;97946.88;1739037;82;20199;-78
2021/08/19 04:29:13;;;;;;;;;;;;;;;11.49;88.69;97949.81;1738920;82;20166;-73
2021/08/19 04:31:39;;;;;;;;;;;;;;;11.51;88.58;97945.45;1718085;82;21149;-73
2021/08/19 04:34:05;;;;;;;;;;;;;;;11.51;87.54;97953.59;1738907;82;20297;-78
2021/08/19 04:36:31;;;;;;;;;;;;;;;11.54;88.44;97956.56;1738963;81;20178;-78
2021/08/19 04:38:57;;;;;;;;;;;;;;;11.50;89.63;97949.27;1738879;81;20152;-74
2021/08/19 04:41:22;;;;;;;;;;;;;;;11.52;87.96;97945.16;1739205;82;20229;-78
2021/08/19 04:43:48;;;;;;;;;;;;;;;11.59;88.94;97948.90;1739015;82;21083;-78
2021/08/19 04:46:14;;;;;;;;;;;;;;;11.69;87.88;97945.27;1739071;81;20166;-78
2021/08/19 04:48:40;;;;;;;;;;;;;;;11.81;87.43;97951.95;1739029;82;20185;-74
2021/08/19 04:51:05;;;;;;;;;;;;;;;11.93;86.96;97956.16;1742866;82;20216;-74
2021/08/19 04:53:31;;;;;;;;;;;;;;;11.99;86.65;97956.36;1747482;82;20187;-74
2021/08/19 04:55:57;;;;;;;;;;;;;;;12.05;86.23;97957.38;1747626;82;21170;-78
2021/08/19 04:58:24;;;;;;;;;;;;;;;12.08;86.16;97965.48;1748552;82;20220;-78
2021/08/19 05:00:50;;;;;;;;;;;;;;;12.13;86.71;97955.89;1749241;81;20124;-77
2021/08/19 05:03:16;;;;;;;;;;;;;;;12.20;86.10;97951.47;1749313;82;20139;-74
2021/08/19 05:05:41;;;;;;;;;;;;;;;12.23;86.47;97964.49;1745624;82;20182;-77
2021/08/19 05:08:07;;;;;;;;;;;;;;;12.33;86.32;97958.36;1738737;81;21009;-78
2021/08/19 05:10:33;;;;;;;;;;;;;;;12.43;86.48;97949.27;1739088;81;20292;-78
2021/08/19 05:12:59;;;;;;;;;;;;;;;12.62;86.80;97943.27;1738717;82;20643;-74
2021/08/19 05:15:24;;;;;;;;;;;;;;;12.82;86.65;97946.25;1739097;81;20158;-74
2021/08/19 05:17:50;;;;;;;;;;;;;;;13.01;87.08;97933.98;1738787;82;20130;-78
2021/08/19 05:20:16;;;;;;;;;;;;;;;13.24;85.68;97941.77;1739170;81;21010;-74
2021/08/19 05:22:42;;;;;;;;;;;;;;;13.33;85.91;97940.00;1738770;82;20209;-74
2021/08/19 05:25:08;;;;;;;;;;;;;;;13.69;85.33;97943.42;1739117;82;20221;-74
2021/08/19 05:27:33;;;;;;;;;;;;;;;14.01;84.26;97943.30;1738889;82;20154;-74
2021/08/19 05:29:59;;;;;;;;;;;;;;;14.21;83.91;97939.37;1739052;81;20174;-79
2021/08/19 05:32:27;;;;;;;;;;;;;;;14.55;83.33;97940.28;1738840;82;20897;-78
2021/08/19 05:34:53;;;;;;;;;;;;;;;14.67;83.64;97932.36;1739065;81;20159;-78
2021/08/19 05:37:19;;;;;;;;;;;;;;;14.85;83.56;97936.03;1738993;82;20173;-74
2021/08/19 05:39:45;;;;;;;;;;;;;;;15.07;82.79;97935.23;1738744;82;20161;-74
2021/08/19 05:42:10;;;;;;;;;;;;;;;15.24;82.75;97931.25;1739024;81;20178;-78
2021/08/19 05:44:37;;;;;;;;;;;;;;;15.47;82.30;97931.23;1738762;82;21627;-74
2021/08/19 05:47:06;;;;;;;;;;;;;;;15.60;81.80;97933.61;1738837;81;20123;-78
2021/08/19 05:49:35;;;;;;;;;;;;;;;15.88;81.24;97932.86;1738527;82;20175;-74
2021/08/19 05:52:01;;;;;;;;;;;;;;;16.11;78.82;97933.59;1738690;81;20171;-74
2021/08/19 05:54:27;;;;;;;;;;;;;;;16.35;79.57;97932.60;1738770;82;20142;-78
2021/08/19 05:56:53;;;;;;;;;;;;;;;16.62;80.56;97932.30;1739262;81;21082;-74
2021/08/19 05:59:19;;;;;;;;;;;;;;;16.82;78.14;97934.98;1738825;82;20193;-78
2021/08/19 06:01:44;;;;;;;;;;;;;;;16.83;76.41;97931.69;1739111;81;20174;-79
2021/08/19 06:04:10;;;;;;;;;;;;;;;16.78;75.27;97936.77;1731614;82;20197;-78
2021/08/19 06:06:36;;;;;;;;;;;;;;;16.95;76.78;97925.02;1730777;82;20159;-74
2021/08/19 06:09:02;;;;;;;;;;;;;;;17.18;76.24;97928.37;1730838;82;21140;-74
2021/08/19 06:11:27;;;;;;;;;;;;;;;17.29;76.04;97925.53;1730808;83;20190;-78
2021/08/19 06:13:53;;;;;;;;;;;;;;;17.45;73.58;97925.25;1730839;83;20170;-75
2021/08/19 06:16:19;;;;;;;;;;;;;;;17.68;73.27;97925.80;1730950;83;20127;-74
2021/08/19 06:18:44;;;;;;;;;;;;;;;17.88;72.29;97926.25;1730810;83;20171;-74
2021/08/19 06:21:10;;;;;;;;;;;;;;;18.07;73.62;97928.58;1730943;83;21908;-75
2021/08/19 06:23:36;;;;;;;;;;;;;;;18.11;71.79;97936.36;1730798;83;20226;-74
2021/08/19 06:26:01;;;;;;;;;;;;;;;17.94;70.46;97932.56;1730942;83;20261;-74
2021/08/19 06:28:27;;;;;;;;;;;;;;;17.97;70.53;97932.50;1730627;82;20202;-74
2021/08/19 06:30:53;;;;;;;;;;;;;;;18.16;72.19;97927.39;1730984;83;20226;-78
2021/08/19 06:33:19;;;;;;;;;;;;;;;18.26;71.73;97919.34;1730766;82;21059;-78
2021/08/19 06:35:45;;;;;;;;;;;;;;;18.39;71.81;97923.79;1730977;83;20197;-74
2021/08/19 06:38:10;;;;;;;;;;;;;;;18.44;70.47;97920.03;1730671;82;20241;-78
2021/08/19 06:40:36;;;;;;;;;;;;;;;18.44;71.00;97918.09;1731024;83;20150;-79
2021/08/19 06:43:02;;;;;;;;;;;;;;;18.82;71.32;97915.83;1730779;82;20233;-79
2021/08/19 06:45:28;;;;;;;;;;;;;;;19.19;70.11;97915.40;1731029;83;21022;-79
2021/08/19 06:47:53;;;;;;;;;;;;;;;19.55;69.01;97907.81;1730587;83;20245;-79
2021/08/19 06:50:19;;;;;;;;;;;;;;;19.62;68.01;97911.41;1731015;82;20730;-75
2021/08/19 06:52:45;;;;;;;;;;;;;;;19.69;67.46;97914.41;1730551;82;20205;-78
2021/08/19 06:55:11;;;;;;;;;;;;;;;19.65;66.25;97918.96;1731033;83;20166;-75
2021/08/19 06:57:37;;;;;;;;;;;;;;;19.73;67.73;97918.86;1730832;82;21705;-79
2021/08/19 07:00:05;;;;;;;;;;;;;;;19.72;65.66;97916.46;1730919;82;20186;-76
2021/08/19 07:02:31;;;;;;;;;;;;;;;19.62;66.33;97914.16;1730238;83;20396;-79
2021/08/19 07:04:57;;;;;;;;;;;;;;;19.42;66.16;97911.13;1730988;83;20158;-75
2021/08/19 07:07:26;;;;;;;;;;;;;;;19.54;66.95;97910.34;1730875;83;20190;-78
2021/08/19 07:09:50;;;;;;;;;;;;;;;19.56;65.67;97909.45;1730720;83;21300;-75
2021/08/19 07:12:16;;;;;;;;;;;;;;;19.70;66.14;97908.56;1730920;82;20237;-75
2021/08/19 07:14:41;;;;;;;;;;;;;;;19.79;66.12;97907.66;1730762;82;20222;-75
2021/08/19 07:17:07;;;;;;;;;;;;;;;19.85;64.92;97903.55;1730984;82;20186;-79
2021/08/19 07:19:33;;;;;;;;;;;;;;;19.99;62.96;97905.36;1730947;83;20258;-75
2021/08/19 07:21:59;;;;;;;;;;;;;;;19.85;62.76;97899.42;1731019;82;21911;-74
2021/08/19 07:24:24;;;;;;;;;;;;;;;19.81;63.04;97902.03;1730689;83;20178;-74
2021/08/19 07:26:50;;;;;;;;;;;;;;;19.80;62.92;97905.13;1730919;82;20194;-79
2021/08/19 07:29:16;;;;;;;;;;;;;;;19.84;63.19;97899.19;1730793;83;20158;-74
2021/08/19 07:31:41;;;;;;;;;;;;;;;19.99;62.13;97902.03;1730960;83;20170;-79
2021/08/19 07:34:07;;;;;;;;;;;;;;;20.19;62.89;97903.08;1730764;82;21069;-75
2021/08/19 07:36:34;;;;;;;;;;;;;;;20.37;62.03;97903.63;1731040;83;20166;-79
2021/08/19 07:39:03;;;;;;;;;;;;;;;20.46;62.24;97900.77;1730805;82;20415;-79
2021/08/19 07:41:27;;;;;;;;;;;;;;;20.58;60.80;97906.23;1730778;82;20156;-79
2021/08/19 07:43:53;;;;;;;;;;;;;;;20.68;60.98;97901.64;1730685;82;20242;-79
2021/08/19 07:46:19;;;;;;;;;;;;;;;20.69;60.92;97903.24;1731049;83;21134;-75
2021/08/19 07:48:44;;;;;;;;;;;;;;;20.76;61.27;97894.37;1730717;83;20249;-79
2021/08/19 07:51:10;;;;;;;;;;;;;;;20.93;58.41;97898.20;1730829;82;20217;-78
2021/08/19 07:53:36;;;;;;;;;;;;;;;20.70;59.58;97897.16;1730806;83;20146;-75
2021/08/19 07:56:02;;;;;;;;;;;;;;;20.86;58.84;97890.34;1730969;83;20249;-75
2021/08/19 07:58:27;;;;;;;;;;;;;;;20.94;58.81;97900.41;1731000;82;21148;-79
2021/08/19 08:00:53;;;;;;;;;;;;;;;21.02;58.33;97890.63;1730403;82;20390;-75
2021/08/19 08:03:19;;;;;;;;;;;;;;;21.20;58.96;97893.86;1730641;82;20254;-78
2021/08/19 08:05:44;;;;;;;;;;;;;;;21.30;58.66;97892.57;1731090;82;20716;-79
2021/08/19 08:08:11;;;;;;;;;;;;;;;21.48;58.69;97897.17;1730757;83;20146;-75
2021/08/19 08:10:38;;;;;;;;;;;;;;;21.61;57.77;97891.79;1731056;82;21125;-79
2021/08/19 08:13:05;;;;;;;;;;;;;;;21.68;56.40;97894.73;1730571;83;20148;-79
2021/08/19 08:15:31;;;;;;;;;;;;;;;21.90;55.62;97889.98;1731180;82;20164;-79
2021/08/19 08:17:56;;;;;;;;;;;;;;;21.67;55.89;97890.37;1730127;82;20221;-75
2021/08/19 08:20:22;;;;;;;;;;;;;;;21.68;55.63;97896.11;1730999;83;20194;-76
2021/08/19 08:22:50;;;;;;;;;;;;;;;21.64;55.53;97894.66;1730771;82;21920;-75
2021/08/19 08:25:16;;;;;;;;;;;;;;;21.58;54.37;97900.20;1730821;83;20217;-75
2021/08/19 08:28:04;;;;;;;;;;;;;;;21.46;54.81;97900.87;1730887;82;20210;-75
2021/08/19 08:30:27;;;;;;;;;;;;;;;21.49;55.36;97904.28;1730427;82;20131;-75
2021/08/19 08:32:53;;;;;;;;;;;;;;;21.69;55.20;97903.22;1730688;83;20083;-75
2021/08/19 08:35:19;;;;;;;;;;;;;;;21.88;55.32;97905.30;1731117;82;21091;-79
2021/08/19 08:37:44;;;;;;;;;;;;;;;22.01;55.45;97901.84;1730847;82;20206;-79
2021/08/19 08:40:12;;;;;;;;;;;;;;;22.16;55.60;97901.06;1729492;82;20258;-79
2021/08/19 08:42:38;;;;;;;;;;;;;;;22.21;56.05;97909.05;1730723;83;20416;-79
2021/08/19 08:45:04;;;;;;;;;;;;;;;22.37;55.54;97913.16;1731356;82;20285;-79
2021/08/19 08:47:32;;;;;;;;;;;;;;;22.35;54.58;97909.38;1730851;82;20581;-79
2021/08/19 08:49:59;;;;;;;;;;;;;;;22.36;54.43;97904.66;1730994;83;20159;-79
2021/08/19 08:52:25;;;;;;;;;;;;;;;22.39;52.41;97903.94;1730664;82;20139;-76
2021/08/19 08:54:51;;;;;;;;;;;;;;;22.29;52.70;97898.39;1730764;82;20197;-76
2021/08/19 08:57:17;;;;;;;;;;;;;;;22.22;53.00;97912.85;1730970;83;20141;-75
2021/08/19 08:59:43;;;;;;;;;;;;;;;22.31;52.92;97908.52;1730709;83;21149;-79
2021/08/19 09:02:08;;;;;;;;;;;;;;;22.46;53.68;97905.48;1730960;82;20249;-79
2021/08/19 09:04:34;;;;;;;;;;;;;;;22.69;53.28;97909.15;1731322;82;20249;-79
2021/08/19 09:07:05;;;;;;;;;;;;;;;22.91;51.96;97903.54;1730835;82;20174;-75
2021/08/19 09:09:31;;;;;;;;;;;;;;;23.07;50.52;97910.34;1730831;83;20108;-75
2021/08/19 09:12:02;;;;;;;;;;;;;;;23.21;49.99;97910.63;1731072;82;21172;-75
2021/08/19 09:14:31;;;;;;;;;;;;;;;23.37;50.13;97905.02;1730579;82;20420;-79
2021/08/19 09:16:58;;;;;;;;;;;;;;;23.61;50.42;97907.47;1730894;82;20183;-79
2021/08/19 09:19:28;;;;;;;;;;;;;;;24.05;50.49;97904.84;1730719;82;20801;-79
2021/08/19 09:21:59;;;;;;;;;;;;;;;24.29;49.37;97898.09;1731017;83;20144;-75
2021/08/19 09:24:26;;;;;;;;;;;;;;;24.24;47.36;97900.58;1730770;83;21104;-80
2021/08/19 09:26:52;;;;;;;;;;;;;;;24.18;47.58;97899.30;1730698;82;20454;-75
2021/08/19 09:29:26;;;;;;;;;;;;;;;24.34;48.26;97901.34;1709898;83;20137;-79
2021/08/19 09:31:58;;;;;;;;;;;;;;;24.48;48.76;97902.16;1730856;82;20478;-79
2021/08/19 09:34:24;;;;;;;;;;;;;;;24.62;47.68;97904.33;1727441;82;20120;-75
2021/08/19 09:37:01;;;;;;;;;;;;;;;24.76;47.62;97898.96;1710095;83;21916;-75
2021/08/19 09:39:36;;;;;;;;;;;;;;;25.18;45.59;97904.85;1730155;82;20140;-79
2021/08/19 09:42:01;;;;;;;;;;;;;;;25.87;44.87;97900.42;1730664;82;20175;-75
2021/08/19 09:44:36;;;;;;;;;;;;;;;26.25;42.31;97894.78;1730595;83;20163;-76
2021/08/19 09:47:04;;;;;;;;;;;;;;;26.51;42.12;97893.19;1731031;82;20458;-76
2021/08/19 09:49:33;;;;;;;;;;;;;;;27.77;39.46;97893.84;1730071;82;21190;-80
2021/08/19 09:52:07;;;;;;;;;;;;;;;28.07;39.46;97892.86;1734535;82;20124;-80
2021/08/19 09:54:38;;;;;;;;;;;;;;;28.00;38.40;97894.25;1742167;82;20414;-80
2021/08/19 09:57:04;;;;;;;;;;;;;;;30.06;35.35;97886.27;1744469;82;20470;-76
2021/08/19 09:59:39;;;;;;;;;;;;;;;30.16;35.21;97884.00;1744083;82;20419;-80
2021/08/19 10:02:06;;;;;;;;;;;;;;;29.81;33.26;97885.07;1740690;82;21117;-80
2021/08/19 10:04:31;;;;;;;;;;;;;;;29.14;35.31;97889.05;1738599;81;20176;-80
2021/08/19 10:06:57;;;;;;;;;;;;;;;30.74;33.85;97879.45;1739101;82;20190;-77
2021/08/19 10:09:23;;;;;;;;;;;;;;;31.50;29.49;97880.08;1738794;82;20395;-80
2021/08/19 10:11:52;;;;;;;;;;;;;;;32.83;30.55;97876.64;1739053;82;20174;-80
2021/08/19 10:14:21;;;;;;;;;;;;;;;31.45;30.50;97880.58;1738629;82;21274;-80
2021/08/19 10:16:47;;;;;;;;;;;;;;;29.87;32.58;97883.44;1738448;81;20143;-80
2021/08/19 10:19:24;;;;;;;;;;;;;;;28.86;34.90;97885.75;1738717;82;20749;-80
2021/08/19 10:21:54;;;;;;;;;;;;;;;28.47;35.27;97888.08;1738886;81;20443;-76
2021/08/19 10:24:33;;;;;;;;;;;;;;;27.78;36.53;97885.12;1738796;81;20407;-76
2021/08/19 10:27:08;;;;;;;;;;;;;;;27.60;36.19;97885.64;1739119;81;21320;-76
2021/08/19 10:29:43;;;;;;;;;;;;;;;27.17;33.44;97890.31;1738356;82;20136;-80
2021/08/19 10:32:33;;;;;;;;;;;;;;;26.23;35.43;97889.59;1739024;82;20190;-80
2021/08/19 10:35:10;;;;;;;;;;;;;;;25.82;37.16;97893.05;1738999;82;20128;-75
2021/08/19 10:37:48;;;;;;;;;;;;;;;25.42;38.07;97890.47;1739125;82;20140;-80
2021/08/19 10:40:24;;;;;;;;;;;;;;;25.18;38.25;97893.77;1739177;81;21089;-79
2021/08/19 10:42:58;;;;;;;;;;;;;;;24.63;39.43;97895.64;1739116;81;20143;-75
2021/08/19 10:45:31;;;;;;;;;;;;;;;24.16;40.89;97890.56;1739309;81;20422;-79
2021/08/19 10:48:12;;;;;;;;;;;;;;;23.91;41.04;97890.97;1739063;82;20143;-79
2021/08/19 10:50:45;;;;;;;;;;;;;;;23.77;42.21;97890.75;1739305;81;20144;-78
2021/08/19 10:53:21;;;;;;;;;;;;;;;23.61;42.24;97885.34;1733694;81;21795;-79
2021/08/19 10:55:49;;;;;;;;;;;;;;;23.48;43.06;97891.38;1731081;82;20144;-79
2021/08/19 10:58:35;;;;;;;;;;;;;;;23.27;43.41;97892.59;1731072;82;20080;-79
2021/08/19 11:01:03;;;;;;;;;;;;;;;23.22;43.68;97889.32;1731102;83;20133;-77
2021/08/19 11:03:40;;;;;;;;;;;;;;;23.22;43.95;97890.70;1730914;83;20589;-75
2021/08/19 11:06:14;;;;;;;;;;;;;;;23.30;44.34;97888.29;1731028;82;21765;-76
2021/08/19 11:08:51;;;;;;;;;;;;;;;23.43;43.08;97888.94;1730848;82;20136;-76
2021/08/19 11:11:36;;;;;;;;;;;;;;;23.27;44.21;97889.83;1731274;82;20144;-75
2021/08/19 11:14:12;;;;;;;;;;;;;;;23.30;44.04;97887.70;1710295;83;20119;-78
2021/08/19 11:16:39;;;;;;;;;;;;;;;23.26;44.17;97882.70;1731112;82;20132;-78
2021/08/19 11:19:20;;;;;;;;;;;;;;;23.30;44.59;97887.70;1730869;83;21826;-75
2021/08/19 11:21:55;;;;;;;;;;;;;;;23.34;44.05;97883.06;1730456;83;20155;-78
2021/08/19 11:24:22;;;;;;;;;;;;;;;23.32;43.56;97885.37;1730766;83;20133;-76
2021/08/19 11:27:07;;;;;;;;;;;;;;;23.52;42.80;97883.38;1731148;83;20423;-78
2021/08/19 11:29:37;;;;;;;;;;;;;;;23.67;42.75;97882.25;1730750;83;20139;-77
2021/08/19 11:32:09;;;;;;;;;;;;;;;24.14;42.71;97874.92;1731056;82;21038;-78
2021/08/19 11:34:36;;;;;;;;;;;;;;;24.65;40.13;97869.75;1730700;82;20140;-77
2021/08/19 11:37:02;;;;;;;;;;;;;;;24.65;40.43;97875.28;1731059;83;20463;-78
2021/08/19 11:39:28;;;;;;;;;;;;;;;24.75;40.81;97874.62;1730794;83;20408;-75
2021/08/19 11:42:05;;;;;;;;;;;;;;;24.60;40.44;97874.22;1731101;83;20143;-76
2021/08/19 11:44:31;;;;;;;;;;;;;;;24.46;39.70;97865.15;1730770;83;21223;-77
2021/08/19 11:47:01;;;;;;;;;;;;;;;24.39;39.32;97860.09;1731041;82;20411;-77
2021/08/19 11:49:27;;;;;;;;;;;;;;;24.16;39.24;97862.89;1730803;83;20423;-75
2021/08/19 11:52:06;;;;;;;;;;;;;;;23.87;40.50;97863.84;1730948;82;20173;-76
2021/08/19 11:54:40;;;;;;;;;;;;;;;23.84;41.20;97870.12;1730845;83;20163;-78
2021/08/19 11:57:06;;;;;;;;;;;;;;;23.73;40.74;97863.60;1730707;83;21756;-76
2021/08/19 11:59:32;;;;;;;;;;;;;;;23.69;39.95;97864.14;1730695;82;20206;-75
2021/08/19 12:01:58;;;;;;;;;;;;;;;23.34;41.22;97866.47;1731007;82;20214;-76
2021/08/19 12:04:32;;;;;;;;;;;;;;;23.21;41.88;97865.03;1730729;83;20136;-75
2021/08/19 12:06:58;;;;;;;;;;;;;;;23.24;42.62;97855.20;1731161;82;20100;-78
2021/08/19 12:09:24;;;;;;;;;;;;;;;23.56;42.43;97857.16;1730860;82;21070;-78
2021/08/19 12:11:51;;;;;;;;;;;;;;;23.86;42.34;97857.30;1730847;82;20158;-76
2021/08/19 12:14:19;;;;;;;;;;;;;;;24.20;41.28;97855.45;1730879;82;20144;-78
2021/08/19 12:16:50;;;;;;;;;;;;;;;24.38;41.01;97861.27;1710412;83;20848;-76
2021/08/19 12:19:17;;;;;;;;;;;;;;;24.27;39.11;97854.73;1730834;82;20143;-75
2021/08/19 12:21:58;;;;;;;;;;;;;;;24.13;40.96;97857.52;1731066;83;21745;-78
2021/08/19 12:24:31;;;;;;;;;;;;;;;24.04;41.07;97861.14;1730739;83;20133;-76
2021/08/19 12:27:14;;;;;;;;;;;;;;;23.86;42.00;97860.87;1731109;82;20136;-76
2021/08/19 12:29:40;;;;;;;;;;;;;;;23.71;42.36;97862.38;1729893;82;20140;-76
2021/08/19 12:32:10;;;;;;;;;;;;;;;23.54;42.39;97865.83;1729671;82;20136;-75
2021/08/19 12:34:55;;;;;;;;;;;;;;;23.35;43.16;97865.89;1729121;82;20765;-75
2021/08/19 12:37:21;;;;;;;;;;;;;;;23.24;42.70;97869.02;1730904;82;20407;-75
2021/08/19 12:39:47;;;;;;;;;;;;;;;23.14;42.33;97868.23;1730655;83;20201;-79
2021/08/19 12:42:14;;;;;;;;;;;;;;;23.01;43.17;97870.38;1731126;83;20217;-76
2021/08/19 12:44:40;;;;;;;;;;;;;;;23.21;43.39;97866.41;1730806;83;20430;-75
2021/08/19 12:47:06;;;;;;;;;;;;;;;23.72;42.42;97863.98;1731123;83;21051;-76
2021/08/19 12:49:35;;;;;;;;;;;;;;;23.76;43.83;97862.88;1730735;83;20223;-79